Nearby METAR Reports

 

ENCN - Kristiansand/Kje, Norway
Distance from station: N 17km
Oppdatert: 15/09/2019 22:50
Klart
Klart
 Vind fra V
Vind: V 24 km/h, Vindkast: 44 km/h
Temperatur: 12°C
Duggpunkt: 5°C
Fuktighet: 63%
Barometer: 1006 hPa
Oversikt: Klart
Visibility: greater than 10 km
2019/09/15 20:50 ENCN 152050Z 27013G24KT 240V330 CAVOK 12/05 Q1006
EKSN - Sindal Airport, Denmark
Distance from station: ØSØ 145km
Oppdatert: 13/09/2019 15:50
NOT Current
Few Clouds
Few Clouds
 Vind fra V
Vind: V 30 km/h, Vindkast: 54 km/h
Temperatur: 16°C
Duggpunkt: 9°C
Fuktighet: 63%
Barometer: 1025 hPa
Clouds: Few Clouds
Visibility: 10 km
Cloud details: Few Clouds 762 m
2019/09/13 13:50 EKSN 131350Z 28016G29KT 9999 FEW025 16/09 Q1025
 
EKYT - Alborg, Denmark
Distance from station: SØ 153km
Oppdatert: 15/09/2019 22:50
Lett regn, Showers, Hovedsaklig skyet
Lett regn, Showers, Hovedsaklig skyet
 Vind fra V
Vind: V 39 km/h, Vindkast: 63 km/h
Temperatur: 13°C
Duggpunkt: 9°C
Fuktighet: 77%
Barometer: 1010 hPa
Oversikt: Lett regn, Showers
Clouds: Hovedsaklig skyet
Visibility: 10 km
Cloud details: Few Clouds 762 m
Delvis skyet 945 m
Hovedsaklig skyet 1311 m
2019/09/15 20:50 EKYT 152050Z AUTO 28021G34KT 9999 -SHRA FEW025/// SCT031/// BKN043/// 13/09 Q1010
ENSN - Skien/Geiterygge, Norway
Distance from station: NØ 153km
Oppdatert: 09/11/2015 09:50
NOT Current
Klart
Klart
 Vind fra SSV
Vind: SSV 19 km/h, Vindkast: 41 km/h
Temperatur: 7°C
Wind Chill: 4°C
Duggpunkt: 3°C
Fuktighet: 76%
Barometer: 1000 hPa
Oversikt: Klart
Visibility: greater than 10 km
2015/11/09 08:50 ENSN 090850Z 20010G22KT 150V240 CAVOK 07/03 Q1000
 
ENZV - Stavanger/Sola(A, Norway
Distance from station: NV 166km
Oppdatert: 15/09/2019 22:50
Lett regn, Showers, Hovedsaklig skyet
Lett regn, Showers, Hovedsaklig skyet
 Vind fra VNV
Vind: VNV 43 km/h
Temperatur: 11°C
Duggpunkt: 7°C
Fuktighet: 77%
Barometer: 1012 hPa
Oversikt: Lett regn, Showers
Clouds: Hovedsaklig skyet
Visibility: 10 km
Cloud details: Few Clouds 335 m
Delvis skyet 823 m
Hovedsaklig skyet 1067 m
2019/09/15 20:50 ENZV 152050Z 30023KT 9999 -SHRA FEW011 SCT027CB BKN035 11/07 Q1012
ENNO - Notodden, Norway
Distance from station: NNØ 182km
Oppdatert: 15/09/2019 18:50
NOT Current
Klart
Klart
 Vind fra V
Vind: V 30 km/h, Vindkast: 48 km/h
Temperatur: 15°C
Duggpunkt: 4°C
Fuktighet: 48%
Barometer: 998 hPa
Oversikt: Klart
Visibility: greater than 10 km
2019/09/15 16:50 ENNO 151650Z 28016G26KT CAVOK 15/04 Q0998
 
ENTO - Torp (civ/Nor-Af, Norway
Distance from station: NØ 183km
Oppdatert: 15/09/2019 22:50
Klart
Klart
 Vind fra V
Vind: V 7 km/h
Temperatur: 12°C
Duggpunkt: 3°C
Fuktighet: 54%
Barometer: 1001 hPa
Oversikt: Klart
Visibility: greater than 10 km
2019/09/15 20:50 ENTO 152050Z 28004KT 250V320 CAVOK 12/03 Q1001 NOSIG
EKKA - Karup (dan-Afb), Denmark
Distance from station: SSØ 209km
Oppdatert: 15/09/2019 22:50
Hovedsaklig skyet
Hovedsaklig skyet
 Vind fra V
Vind: V 31 km/h
Temperatur: 12°C
Duggpunkt: 8°C
Fuktighet: 77%
Barometer: 1014 hPa
Clouds: Hovedsaklig skyet
Visibility: 10 km
Cloud details: Hovedsaklig skyet 884 m
2019/09/15 20:50 EKKA 152050Z AUTO 28017KT 9999 BKN029/// 12/08 Q1014
 
ENHD - Haugesund/Karmoy, Norway
Distance from station: NV 216km
Oppdatert: 15/09/2019 22:50
Delvis skyet
Delvis skyet
 Vind fra VNV
Vind: VNV 39 km/h
Temperatur: 12°C
Duggpunkt: 7°C
Fuktighet: 72%
Barometer: 1012 hPa
Clouds: Delvis skyet
Visibility: 10 km
Cloud details: Few Clouds 610 m
Delvis skyet 945 m
2019/09/15 20:50 ENHD 152050Z 30021KT 9999 FEW020 SCT031 12/07 Q1012
ENRY - Rygge (nor-Afb), Norway
Distance from station: NØ 216km
Oppdatert: 15/09/2019 22:50
Klart
Klart
 Vind fra VSV
Vind: VSV 20 km/h
Temperatur: 13°C
Duggpunkt: 3°C
Fuktighet: 51%
Barometer: 1001 hPa
Clouds: Klart
Visibility: 10 km
2019/09/15 20:50 ENRY 152050Z AUTO 25011KT 9999NDV NCD 13/03 Q1001
 
ESGP - Goteborg/Save (a, Sweden
Distance from station: Ø 230km
Oppdatert: 02/01/2017 11:20
NOT Current
Klart
Klart
 Vind fra calm
Vind: Stille
Temperatur: -2°C
Duggpunkt: -4°C
Fuktighet: 86%
Barometer: 1012 hPa
Clouds: Klart
Visibility: 10 km
2017/01/02 10:20 ESGP 021020Z AUTO 00000KT 9999 NCD M02/M04 Q1012
EKVJ - Stauning Airport, Denmark
Distance from station: S 233km
Oppdatert: 15/09/2019 15:50
NOT Current
Hovedsaklig skyet
Hovedsaklig skyet
 Vind fra VNV
Vind: VNV 28 km/h
Temperatur: 14°C
Duggpunkt: 10°C
Fuktighet: 77%
Barometer: 1015 hPa
Clouds: Hovedsaklig skyet
Visibility: 10 km
Cloud details: Delvis skyet 1158 m
Hovedsaklig skyet 4572 m
2019/09/15 13:50 EKVJ 151350Z 30015KT 240V340 9999 SCT038 BKN150 14/10 Q1015
 
ENSO - Stord/Soerstokke, Norway
Distance from station: NV 246km
Oppdatert: 15/09/2019 19:20
NOT Current
Hovedsaklig skyet
Hovedsaklig skyet
 Vind fra VNV
Vind: VNV 43 km/h, Vindkast: 61 km/h
Temperatur: 11°C
Duggpunkt: 8°C
Fuktighet: 82%
Barometer: 1008 hPa
Clouds: Hovedsaklig skyet
Visibility: 10 km
Cloud details: Delvis skyet 762 m
Hovedsaklig skyet 1402 m
2019/09/15 17:20 ENSO 151720Z 29023G33KT 240V330 9999 SCT025TCU BKN046 11/08 Q1008
EKAH - Tirstrup (civ/Mi, Denmark
Distance from station: SØ 252km
Oppdatert: 15/09/2019 22:50
Hovedsaklig skyet
Hovedsaklig skyet
 Vind fra V
Vind: V 26 km/h
Temperatur: 12°C
Duggpunkt: 8°C
Fuktighet: 77%
Barometer: 1012 hPa
Clouds: Hovedsaklig skyet
Visibility: 10 km
Cloud details: Hovedsaklig skyet 823 m
2019/09/15 20:50 EKAH 152050Z AUTO 27014KT 9999NDV BKN027/// 12/08 Q1012
 
ESGT - Trollhattan (pvt, Sweden
Distance from station: Ø 255km
Oppdatert: 15/09/2019 22:20
Klart
Klart
 Vind fra VSV
Vind: VSV 30 km/h, Vindkast: 48 km/h
Temperatur: 13°C
Duggpunkt: 7°C
Fuktighet: 67%
Barometer: 1002 hPa
Clouds: Klart
Visibility: 10 km
2019/09/15 20:20 ESGT 152020Z AUTO 25016G26KT 220V280 9999 NCD 13/07 Q1002
ESGG - Goteborg/Landvet, Sweden
Distance from station: Ø 257km
Oppdatert: 15/09/2019 22:20
Hovedsaklig skyet
Hovedsaklig skyet
 Vind fra V
Vind: V 35 km/h
Temperatur: 12°C
Duggpunkt: 7°C
Fuktighet: 72%
Barometer: 1005 hPa
Clouds: Hovedsaklig skyet
Visibility: 10 km
Cloud details: Hovedsaklig skyet 701 m
2019/09/15 20:20 ESGG 152020Z 26019KT 9999 BKN023 12/07 Q1005
 
EKBI - Billund Airport, Denmark
Distance from station: SSØ 269km
Oppdatert: 15/09/2019 22:50
Hovedsaklig skyet
Hovedsaklig skyet
 Vind fra V
Vind: V 26 km/h
Temperatur: 12°C
Duggpunkt: 8°C
Fuktighet: 77%
Barometer: 1015 hPa
Clouds: Hovedsaklig skyet
Visibility: 10 km
Cloud details: Delvis skyet 1006 m
Hovedsaklig skyet 1372 m
2019/09/15 20:50 EKBI 152050Z AUTO 27014KT 9999 SCT033/// BKN045/// 12/08 Q1015
EKHN - Horns Rev B Heli, Denmark
Distance from station: S 274km
Oppdatert: 09/08/2016 14:20
NOT Current
Few Clouds
Few Clouds
 Vind fra VNV
Vind: VNV 50 km/h, Vindkast: 72 km/h
Temperatur: 14°C
Duggpunkt: 10°C
Fuktighet: 77%
Barometer: 1018 hPa
Clouds: Few Clouds
Visibility: 10 km
Cloud details: Few Clouds 1158 m
Few Clouds 2438 m
2016/08/09 12:20 EKHN 091220Z AUTO 29027G39KT 270V340 9999NDV FEW038/// FEW080/// 14/10 Q1018
 
ESIB - Satenas (swe-Afb, Sweden
Distance from station: Ø 277km
Oppdatert: 15/09/2019 22:20
Klart
Klart
 Vind fra VSV
Vind: VSV 41 km/h
Temperatur: 13°C
Duggpunkt: 8°C
Fuktighet: 72%
Barometer: 1001 hPa
Clouds: Klart
Visibility: 10 km
2019/09/15 20:20 ESIB 152020Z AUTO 25022KT 9999 NCD 13/08 Q1001
EKHR - Horns Rev B Heli, Denmark
Distance from station: S 282km
Oppdatert: 04/10/2016 06:20
NOT Current
Klart
Klart
 Vind fra Ø
Vind: Ø 4 km/h
Temperatur: 11°C
Duggpunkt: -49°C
Fuktighet: 0%
Barometer: 1038 hPa
Clouds: Klart
Visibility: 10 km
2016/10/04 04:20 EKHR 040420Z AUTO 08002KT 9999NDV NCD 11/M49 Q1038